Time;durP1;ratioP1;P1;durP2;ratioP2;P2;SDS_P1;SDS_P2;PMS_P1;PMS_P2;Temp;Humidity;BMP_temperature;BMP_pressure;BME280_temperature;BME280_humidity;BME280_pressure;Samples;Min_cycle;Max_cycle;Signal;HPM_P1;HPM_P2
2022/04/06 00:01:47;;;;;;;11.27;7.22;;;;;;;4.64;100.00;99812.75;4517859;31;20130;-73
2022/04/06 00:04:15;;;;;;;10.07;6.40;;;;;;;4.74;100.00;99809.31;4517755;31;20555;-73
2022/04/06 00:06:43;;;;;;;9.68;6.55;;;;;;;4.78;100.00;99811.03;4517798;31;20114;-73
2022/04/06 00:09:18;;;;;;;9.68;6.45;;;;;;;4.77;100.00;99809.28;4517703;31;20187;-73
2022/04/06 00:11:46;;;;;;;11.80;6.93;;;;;;;4.66;100.00;99806.62;4502841;31;20107;-73
2022/04/06 00:14:13;;;;;;;9.88;6.72;;;;;;;4.57;100.00;99804.03;4517756;31;20417;-73
2022/04/06 00:16:41;;;;;;;10.52;6.20;;;;;;;4.48;100.00;99809.19;4517920;31;20573;-73
2022/04/06 00:19:08;;;;;;;25.33;11.98;;;;;;;4.39;100.00;99812.66;4517680;31;20248;-73
2022/04/06 00:21:35;;;;;;;18.27;10.80;;;;;;;4.18;100.00;99813.44;4516410;31;20123;-73
2022/04/06 00:24:02;;;;;;;22.95;11.02;;;;;;;4.18;100.00;99823.88;4517684;31;20087;-73
2022/04/06 00:26:30;;;;;;;17.70;11.38;;;;;;;4.17;100.00;99822.12;4517742;31;20090;-73
2022/04/06 00:28:57;;;;;;;30.42;15.10;;;;;;;4.21;100.00;99826.50;4517688;31;20800;-73
2022/04/06 00:31:25;;;;;;;75.70;27.13;;;;;;;4.34;100.00;99827.41;4517925;31;20121;-73
2022/04/06 00:33:52;;;;;;;249.93;77.65;;;;;;;4.47;100.00;99823.97;4517591;31;20083;-73
2022/04/06 00:36:19;;;;;;;94.05;30.40;;;;;;;4.47;100.00;99817.91;4517663;31;20114;-73
2022/04/06 00:38:46;;;;;;;76.25;25.35;;;;;;;4.37;100.00;99823.94;4517445;31;20147;-73
2022/04/06 00:41:13;;;;;;;46.75;16.62;;;;;;;4.27;100.00;99825.63;4517744;31;20106;-73
2022/04/06 00:43:40;;;;;;;15.48;8.20;;;;;;;4.12;100.00;99822.97;4517492;31;20082;-73
2022/04/06 00:46:08;;;;;;;11.60;7.82;;;;;;;4.15;100.00;99822.97;4517455;31;20166;-73
2022/04/06 00:48:35;;;;;;;13.00;8.02;;;;;;;4.08;100.00;99819.47;4517700;31;20450;-73
2022/04/06 00:51:02;;;;;;;17.23;10.75;;;;;;;4.16;100.00;99822.09;4517437;31;20099;-73
2022/04/06 00:53:30;;;;;;;15.23;9.25;;;;;;;4.12;100.00;99821.22;4517354;31;20084;-73
2022/04/06 00:55:57;;;;;;;14.57;9.23;;;;;;;4.05;100.00;99820.31;4517413;31;20099;-73
2022/04/06 00:58:24;;;;;;;13.75;8.23;;;;;;;4.05;100.00;99816.84;4517309;31;20174;-73
2022/04/06 01:00:52;;;;;;;14.00;8.82;;;;;;;4.06;100.00;99821.19;4517393;31;20155;-73
2022/04/06 01:03:19;;;;;;;12.18;8.27;;;;;;;4.06;100.00;99827.28;4517303;31;20079;-73
2022/04/06 01:05:47;;;;;;;10.57;7.32;;;;;;;4.05;100.00;99830.75;4517208;31;20521;-73
2022/04/06 01:08:15;;;;;;;8.60;6.68;;;;;;;4.15;100.00;99829.06;4517165;31;20115;-73
2022/04/06 01:10:42;;;;;;;10.40;6.03;;;;;;;4.17;100.00;99823.84;4517224;31;20156;-73
2022/04/06 01:13:09;;;;;;;13.25;8.15;;;;;;;4.21;100.00;99823.03;4517211;31;20150;-73
2022/04/06 01:15:37;;;;;;;20.27;12.10;;;;;;;4.25;100.00;99828.25;4517470;31;20133;-73
2022/04/06 01:18:04;;;;;;;18.62;10.95;;;;;;;4.39;100.00;99837.88;4516869;31;20450;-73
2022/04/06 01:20:31;;;;;;;15.32;10.68;;;;;;;4.30;100.00;99839.56;4517249;31;20163;-73
2022/04/06 01:22:59;;;;;;;24.58;14.48;;;;;;;4.35;100.00;99829.16;4517249;31;20185;-73
2022/04/06 01:25:27;;;;;;;48.15;26.87;;;;;;;4.39;100.00;99838.75;4517006;31;20530;-73
2022/04/06 01:27:54;;;;;;;31.85;19.85;;;;;;;4.40;100.00;99837.00;4516861;31;20092;-73
2022/04/06 01:30:21;;;;;;;31.75;18.87;;;;;;;4.49;100.00;99834.44;4516906;31;20107;-73
2022/04/06 01:32:48;;;;;;;30.73;19.98;;;;;;;4.53;100.00;99831.84;4516677;31;20090;-73
2022/04/06 01:35:15;;;;;;;42.53;26.05;;;;;;;4.53;100.00;99820.53;4516875;31;20082;-73
2022/04/06 01:37:43;;;;;;;33.33;20.73;;;;;;;4.67;100.00;99831.91;4516926;31;20502;-73
2022/04/06 01:40:11;;;;;;;27.87;19.42;;;;;;;4.68;100.00;99823.19;4516790;31;20091;-73
2022/04/06 01:42:38;;;;;;;20.08;12.50;;;;;;;4.61;100.00;99821.44;4516883;31;20116;-73
2022/04/06 01:45:06;;;;;;;15.82;10.40;;;;;;;4.52;100.00;99824.00;4516815;31;20374;-73
2022/04/06 01:47:34;;;;;;;14.87;9.98;;;;;;;4.52;100.00;99816.16;4516628;31;20121;-73
2022/04/06 01:52:47;;;;;;;12.30;8.63;;;;;;;4.41;100.00;99815.25;4517082;31;20080;-73
2022/04/06 01:55:15;;;;;;;9.05;7.68;;;;;;;4.40;100.00;99818.75;4516875;31;20122;-73
2022/04/06 01:57:43;;;;;;;11.98;8.48;;;;;;;4.58;100.00;99823.16;4516557;31;20415;-73
2022/04/06 02:00:15;;;;;;;13.82;8.57;;;;;;;4.62;100.00;99814.47;4516522;31;20574;-73
2022/04/06 02:02:49;;;;;;;11.50;7.43;;;;;;;4.54;100.00;99823.16;4516544;31;20135;-73
2022/04/06 02:05:18;;;;;;;9.65;6.85;;;;;;;4.47;100.00;99815.28;4516664;31;20079;-73
2022/04/06 02:07:50;;;;;;;8.50;5.97;;;;;;;4.36;100.00;99803.94;4516339;31;20497;-73
2022/04/06 02:10:18;;;;;;;11.65;6.87;;;;;;;4.41;100.00;99810.03;4516620;31;20095;-73
2022/04/06 02:12:46;;;;;;;8.70;6.57;;;;;;;4.40;100.00;99806.56;4516432;31;20075;-73
2022/04/06 02:15:15;;;;;;;11.02;7.35;;;;;;;4.39;100.00;99803.97;4516397;31;20462;-73
2022/04/06 02:17:43;;;;;;;11.82;7.37;;;;;;;4.41;100.00;99805.69;4516297;31;20229;-73
2022/04/06 02:20:11;;;;;;;10.93;6.25;;;;;;;4.45;100.00;99806.56;4516081;31;20111;-73
2022/04/06 02:22:41;;;;;;;11.12;6.93;;;;;;;4.48;100.00;99804.84;4516243;31;20099;-73
2022/04/06 02:25:09;;;;;;;12.02;7.00;;;;;;;4.48;100.00;99811.81;4516274;31;20176;-73
2022/04/06 02:27:51;;;;;;;11.93;7.70;;;;;;;4.50;100.00;99800.53;4516147;31;21026;-73
2022/04/06 02:30:20;;;;;;;9.07;7.22;;;;;;;4.43;100.00;99805.72;4516079;31;20088;-73
2022/04/06 02:32:47;;;;;;;11.00;7.37;;;;;;;4.45;100.00;99817.91;4515928;31;20106;-73
2022/04/06 02:35:14;;;;;;;8.60;6.60;;;;;;;4.37;100.00;99813.50;4515917;31;20439;-73
2022/04/06 02:37:44;;;;;;;8.35;6.22;;;;;;;4.39;100.00;99827.44;4516198;31;20198;-73
2022/04/06 02:40:13;;;;;;;10.30;6.28;;;;;;;4.30;100.00;99810.87;4515973;31;20118;-73
2022/04/06 02:42:41;;;;;;;7.90;6.07;;;;;;;4.19;100.00;99809.97;4516018;31;20075;-73
2022/04/06 02:45:09;;;;;;;9.32;6.40;;;;;;;4.17;100.00;99816.03;4517108;31;20115;-73
2022/04/06 02:47:36;;;;;;;8.65;6.62;;;;;;;4.08;100.00;99809.91;4503610;31;20127;-73
2022/04/06 02:50:05;;;;;;;8.50;5.93;;;;;;;4.13;100.00;99809.06;4518231;31;20159;-73
2022/04/06 02:52:33;;;;;;;9.15;6.30;;;;;;;4.25;100.00;99810.00;4518293;31;20090;-73
2022/04/06 02:55:00;;;;;;;9.45;6.60;;;;;;;4.26;100.00;99816.94;4518376;31;20091;-73
2022/04/06 02:57:27;;;;;;;10.43;6.97;;;;;;;4.25;100.00;99810.00;4518128;31;20493;-73
2022/04/06 02:59:54;;;;;;;7.18;6.15;;;;;;;4.31;100.00;99814.34;4518308;31;20112;-73
2022/04/06 03:02:21;;;;;;;9.43;6.20;;;;;;;4.35;100.00;99816.13;4518274;31;20113;-73
2022/04/06 03:04:49;;;;;;;7.18;6.20;;;;;;;4.45;100.00;99811.78;4518471;31;20132;-73
2022/04/06 03:07:18;;;;;;;8.40;6.25;;;;;;;4.57;100.00;99809.25;4518242;31;20214;-73
2022/04/06 03:09:45;;;;;;;10.32;7.30;;;;;;;4.63;100.00;99809.28;4503381;31;20468;-73
2022/04/06 03:12:13;;;;;;;9.75;6.93;;;;;;;4.76;100.00;99818.00;4518158;31;20071;-73
2022/04/06 03:14:40;;;;;;;9.02;6.07;;;;;;;4.89;100.00;99818.91;4518123;31;20099;-73
2022/04/06 03:17:08;;;;;;;10.18;6.68;;;;;;;5.00;100.00;99817.16;4518088;31;20122;-73
2022/04/06 03:19:35;;;;;;;12.80;6.68;;;;;;;5.12;100.00;99827.63;4518221;31;20100;-73
2022/04/06 03:22:03;;;;;;;10.38;6.90;;;;;;;5.32;100.00;99825.03;4517960;31;20149;-73
2022/04/06 03:24:30;;;;;;;9.57;6.78;;;;;;;5.41;100.00;99824.19;4518006;31;20103;-73
2022/04/06 03:26:57;;;;;;;9.52;6.97;;;;;;;5.48;100.00;99816.34;4518123;31;20132;-73
2022/04/06 03:29:25;;;;;;;10.65;6.97;;;;;;;5.56;100.00;99815.47;4518114;31;20574;-73
2022/04/06 03:31:53;;;;;;;12.75;7.97;;;;;;;5.63;100.00;99814.59;4518226;31;20439;-73
2022/04/06 03:34:20;;;;;;;12.00;7.78;;;;;;;5.64;100.00;99811.09;4518100;31;20095;-73
2022/04/06 03:36:47;;;;;;;12.00;8.57;;;;;;;5.61;100.00;99816.31;4517940;31;20175;-73
2022/04/06 03:39:14;;;;;;;10.52;7.05;;;;;;;5.58;100.00;99818.94;4517953;31;20108;-73
2022/04/06 03:41:41;;;;;;;11.55;7.65;;;;;;;5.49;100.00;99817.19;4518020;31;20071;-73
2022/04/06 03:44:09;;;;;;;10.65;7.57;;;;;;;5.32;100.00;99811.97;4517976;31;20113;-73
2022/04/06 03:46:36;;;;;;;7.68;6.22;;;;;;;5.18;100.00;99816.31;4517752;31;20164;-73
2022/04/06 03:49:07;;;;;;;10.05;7.65;;;;;;;5.13;100.00;99813.72;4517884;31;20103;-73
2022/04/06 03:51:35;;;;;;;16.33;9.75;;;;;;;4.99;100.00;99813.69;4517980;31;20188;-73
2022/04/06 03:54:03;;;;;;;17.08;9.90;;;;;;;4.94;100.00;99820.63;4517903;31;20091;-73
2022/04/06 03:56:30;;;;;;;14.77;9.82;;;;;;;4.93;100.00;99829.34;4518242;31;20134;-73
2022/04/06 03:58:57;;;;;;;17.62;9.45;;;;;;;5.00;100.00;99832.84;4518686;31;20091;-73
2022/04/06 04:01:25;;;;;;;12.05;9.18;;;;;;;5.10;100.00;99837.22;4514548;31;20142;-73
2022/04/06 04:03:53;;;;;;;11.88;8.93;;;;;;;5.22;100.00;99831.13;4507679;31;20087;-73
2022/04/06 04:06:20;;;;;;;17.45;9.25;;;;;;;5.22;100.00;99826.75;4517667;31;20104;-73
2022/04/06 04:08:47;;;;;;;16.80;9.05;;;;;;;5.25;100.00;99829.38;4506658;31;20107;-73
2022/04/06 04:11:14;;;;;;;17.23;10.10;;;;;;;5.22;100.00;99831.97;4501431;31;20158;-73
2022/04/06 04:13:44;;;;;;;20.55;10.80;;;;;;;5.24;100.00;99826.78;4501622;31;20768;-73
2022/04/06 04:16:14;;;;;;;12.88;8.73;;;;;;;5.16;100.00;99829.38;4501561;31;20536;-73
2022/04/06 04:18:42;;;;;;;17.33;9.50;;;;;;;5.24;100.00;99832.87;4486554;31;20187;-73
2022/04/06 04:21:51;;;;;;;17.30;9.88;;;;;;;5.37;100.00;99825.03;4514495;31;20404;-73
2022/04/06 04:24:16;;;;;;;16.55;10.60;;;;;;;5.38;100.00;99830.28;4517166;31;20511;-73
2022/04/06 04:26:43;;;;;;;13.40;9.27;;;;;;;5.44;100.00;99827.66;4517420;31;20478;-73
2022/04/06 04:29:10;;;;;;;18.25;11.18;;;;;;;5.51;100.00;99824.19;4517537;31;20130;-73
2022/04/06 04:31:38;;;;;;;28.10;14.70;;;;;;;5.53;100.00;99825.91;4517452;31;20486;-73
2022/04/06 04:34:05;;;;;;;23.77;14.05;;;;;;;5.60;100.00;99825.91;4517490;31;20143;-73
2022/04/06 04:36:32;;;;;;;22.25;11.18;;;;;;;5.75;100.00;99833.72;4517302;31;20131;-73
2022/04/06 04:39:01;;;;;;;15.82;10.38;;;;;;;5.60;100.00;99836.34;4517465;31;20107;-73
2022/04/06 04:41:28;;;;;;;32.53;11.15;;;;;;;5.49;100.00;99851.16;4517303;31;20560;-73
2022/04/06 04:43:55;;;;;;;15.52;10.25;;;;;;;5.43;100.00;99848.56;4517598;31;20158;-73
2022/04/06 04:46:22;;;;;;;27.40;10.88;;;;;;;5.42;100.00;99846.81;4517542;31;20092;-73
2022/04/06 04:48:50;;;;;;;25.10;11.43;;;;;;;5.47;100.00;99856.37;4517091;31;20095;-73
2022/04/06 04:51:17;;;;;;;19.33;11.07;;;;;;;5.59;100.00;99858.16;4517256;31;20424;-73
2022/04/06 04:53:44;;;;;;;18.25;9.85;;;;;;;5.73;100.00;99855.53;4517739;31;20082;-73
2022/04/06 04:56:12;;;;;;;28.92;11.02;;;;;;;5.82;100.00;99857.25;4514742;31;20088;-73
2022/04/06 04:58:39;;;;;;;21.75;10.55;;;;;;;5.87;100.00;99859.00;4501296;31;20126;-73
2022/04/06 05:01:07;;;;;;;16.60;10.38;;;;;;;5.94;100.00;99850.31;4501152;31;20110;-73
2022/04/06 05:03:35;;;;;;;14.65;9.57;;;;;;;6.09;100.00;99845.91;4501338;31;20083;-73
2022/04/06 05:06:02;;;;;;;17.08;9.77;;;;;;;6.22;100.00;99851.13;4502093;31;20122;-73
2022/04/06 05:08:29;;;;;;;19.30;9.38;;;;;;;6.37;100.00;99852.81;4500791;31;20100;-73
2022/04/06 05:10:56;;;;;;;16.90;9.48;;;;;;;6.44;100.00;99861.50;4501644;31;20106;-73
2022/04/06 05:13:24;;;;;;;19.80;10.43;;;;;;;6.47;100.00;99861.50;4501584;31;20206;-73
2022/04/06 05:15:52;;;;;;;19.27;12.27;;;;;;;6.52;100.00;99867.56;4501349;31;20474;-73
2022/04/06 05:18:19;;;;;;;16.62;11.65;;;;;;;6.52;100.00;99857.09;4506532;31;20490;-72
2022/04/06 05:20:46;;;;;;;20.08;12.43;;;;;;;6.49;100.00;99862.34;4509417;31;20748;-73
2022/04/06 05:23:13;;;;;;;17.52;12.35;;;;;;;6.48;100.00;99860.62;4510402;31;20118;-73
2022/04/06 05:25:41;;;;;;;20.80;12.98;;;;;;;6.45;100.00;99871.09;4508597;31;20127;-72
2022/04/06 05:28:08;;;;;;;28.05;13.23;;;;;;;6.45;100.00;99873.72;4508575;31;20095;-73
2022/04/06 05:30:38;;;;;;;22.95;13.25;;;;;;;6.57;100.00;99871.06;4509725;31;20979;-73
2022/04/06 05:33:05;;;;;;;24.50;12.15;;;;;;;6.57;100.00;99865.81;4508902;31;20083;-73
2022/04/06 05:35:33;;;;;;;38.42;13.68;;;;;;;6.57;100.00;99875.41;4508314;31;20203;-74
2022/04/06 05:38:00;;;;;;;42.47;13.73;;;;;;;6.66;100.00;99883.22;4509347;31;20170;-72
2022/04/06 05:40:28;;;;;;;39.67;12.43;;;;;;;6.75;100.00;99880.59;4509569;31;20079;-73
2022/04/06 05:42:56;;;;;;;24.25;11.48;;;;;;;6.85;100.00;99876.16;4508292;31;20126;-73
2022/04/06 05:45:23;;;;;;;32.03;10.90;;;;;;;6.96;100.00;99879.59;4509470;31;20129;-73
2022/04/06 05:47:51;;;;;;;26.70;11.07;;;;;;;7.13;100.00;99892.59;4509465;31;20168;-73
2022/04/06 05:50:18;;;;;;;27.27;11.52;;;;;;;7.31;100.00;99882.00;4500657;31;20087;-72
2022/04/06 05:52:45;;;;;;;24.20;9.68;;;;;;;7.52;99.23;99888.84;4501351;31;20482;-72
2022/04/06 05:55:13;;;;;;;24.63;9.90;;;;;;;7.75;98.08;99882.56;4500891;31;20108;-72
2022/04/06 05:57:40;;;;;;;26.95;9.07;;;;;;;8.00;96.45;99893.69;4501057;31;20104;-72
2022/04/06 06:00:09;;;;;;;17.58;8.55;;;;;;;8.02;94.69;99890.19;4501153;31;20099;-73
2022/04/06 06:02:37;;;;;;;18.98;8.82;;;;;;;8.23;93.03;99901.34;4500651;31;20155;-72
2022/04/06 06:05:05;;;;;;;15.57;9.00;;;;;;;8.20;91.84;99898.75;4500884;31;20356;-72
2022/04/06 06:07:32;;;;;;;11.80;8.60;;;;;;;8.21;91.98;99896.13;4500969;31;20160;-72
2022/04/06 06:10:00;;;;;;;13.60;8.10;;;;;;;8.28;92.07;99892.53;4500869;31;20091;-72
2022/04/06 06:12:27;;;;;;;11.02;7.55;;;;;;;8.23;91.48;99899.56;4500896;31;20095;-73
2022/04/06 06:14:54;;;;;;;11.30;6.93;;;;;;;8.33;90.11;99900.34;4500716;31;20780;-72
2022/04/06 06:17:21;;;;;;;10.15;7.00;;;;;;;8.31;89.90;99895.13;4500843;31;20095;-72
2022/04/06 06:19:49;;;;;;;10.75;6.60;;;;;;;8.38;89.35;99890.72;4511005;31;20155;-73
2022/04/06 06:22:17;;;;;;;9.40;6.68;;;;;;;8.48;89.53;99892.38;4510801;31;20075;-73
2022/04/06 06:24:44;;;;;;;9.10;6.28;;;;;;;8.58;87.58;99899.22;4509875;31;20167;-73
2022/04/06 06:27:14;;;;;;;9.27;6.47;;;;;;;8.79;87.63;99902.50;4503076;31;20091;-73
2022/04/06 06:29:41;;;;;;;7.72;6.20;;;;;;;8.88;86.74;99897.13;4502643;31;20118;-73
2022/04/06 06:32:08;;;;;;;7.80;6.18;;;;;;;8.93;86.19;99899.69;4502405;31;20463;-73
2022/04/06 06:34:35;;;;;;;10.18;6.80;;;;;;;8.94;84.82;99902.31;4502619;31;20096;-72
2022/04/06 06:37:03;;;;;;;9.88;6.47;;;;;;;9.00;84.70;99896.97;4502977;31;20107;-73
2022/04/06 06:39:30;;;;;;;21.77;6.65;;;;;;;9.08;83.48;99902.09;4502185;31;20110;-73
2022/04/06 06:41:57;;;;;;;8.23;6.22;;;;;;;9.19;84.03;99902.00;4501404;31;20092;-73
2022/04/06 06:44:24;;;;;;;8.90;6.40;;;;;;;9.41;82.94;99898.16;4502383;31;20084;-74
2022/04/06 06:46:52;;;;;;;10.10;6.50;;;;;;;9.49;81.72;99898.91;4502982;31;20100;-75
2022/04/06 06:49:24;;;;;;;12.35;7.40;;;;;;;9.54;81.07;99902.34;4502928;31;20117;-74
2022/04/06 06:51:52;;;;;;;10.55;6.85;;;;;;;9.64;81.54;99900.41;4503040;31;20148;-72
2022/04/06 06:54:19;;;;;;;14.00;7.22;;;;;;;9.83;79.70;99901.00;4502930;31;20095;-73
2022/04/06 06:56:46;;;;;;;12.50;6.80;;;;;;;9.84;80.27;99902.72;4509140;31;20108;-74
2022/04/06 06:59:14;;;;;;;13.32;7.70;;;;;;;9.91;80.04;99893.84;4518929;31;20158;-73
2022/04/06 07:01:41;;;;;;;15.60;9.65;;;;;;;10.04;79.61;99900.63;4508097;31;20099;-72
2022/04/06 07:04:13;;;;;;;14.60;8.80;;;;;;;10.14;79.50;99897.81;4502925;31;20427;-70
2022/04/06 07:06:40;;;;;;;22.65;10.05;;;;;;;10.23;78.99;99888.00;4502980;31;20164;-70
2022/04/06 07:09:08;;;;;;;24.80;9.52;;;;;;;10.49;78.49;99886.66;4502838;31;20076;-72
2022/04/06 07:11:35;;;;;;;14.23;8.80;;;;;;;10.72;77.89;99889.72;4503078;31;20107;-71
2022/04/06 07:14:02;;;;;;;19.70;8.50;;;;;;;10.86;77.16;99889.44;4502823;31;20763;-69
2022/04/06 07:16:30;;;;;;;13.27;8.10;;;;;;;10.97;75.88;99892.72;4502803;31;20104;-70
2022/04/06 07:18:57;;;;;;;14.50;8.70;;;;;;;10.81;75.20;99891.28;4488111;31;20114;-70
2022/04/06 07:21:24;;;;;;;22.60;8.93;;;;;;;10.91;76.18;99894.59;4502676;31;20143;-70
2022/04/06 07:23:53;;;;;;;13.30;7.78;;;;;;;11.20;73.77;99889.59;4502660;31;20096;-70
2022/04/06 07:26:21;;;;;;;15.10;8.82;;;;;;;11.31;73.21;99889.34;4502914;31;20143;-70
2022/04/06 07:28:48;;;;;;;12.98;7.47;;;;;;;11.46;73.33;99888.13;4502801;31;20125;-70
2022/04/06 07:31:15;;;;;;;10.38;7.28;;;;;;;11.66;71.87;99883.25;4501782;31;20155;-71
2022/04/06 07:33:43;;;;;;;12.85;6.97;;;;;;;11.90;70.45;99894.09;4502446;31;20100;-71
2022/04/06 07:36:10;;;;;;;13.38;6.75;;;;;;;11.98;68.71;99897.44;4502431;31;20108;-72
2022/04/06 07:38:37;;;;;;;10.32;6.45;;;;;;;12.17;68.35;99897.81;4502778;31;20658;-72
2022/04/06 07:41:05;;;;;;;13.32;6.70;;;;;;;12.44;68.85;99901.50;4509518;31;20095;-72
2022/04/06 07:43:32;;;;;;;16.27;6.45;;;;;;;12.67;65.05;99898.22;4508879;31;20155;-72
2022/04/06 07:45:59;;;;;;;10.30;5.75;;;;;;;12.85;66.20;99897.69;4502561;31;20095;-72
2022/04/06 07:48:27;;;;;;;17.40;5.82;;;;;;;13.11;65.34;99896.94;4515080;31;20878;-71
2022/04/06 07:50:55;;;;;;;10.85;5.45;;;;;;;13.41;65.25;99898.72;4518620;31;20091;-72
2022/04/06 07:53:22;;;;;;;10.00;5.00;;;;;;;13.93;61.90;99894.41;4518428;31;20150;-72
2022/04/06 07:55:50;;;;;;;9.80;4.90;;;;;;;14.15;60.83;99900.69;4518544;31;20099;-69
2022/04/06 07:58:18;;;;;;;6.97;4.80;;;;;;;14.44;58.78;99897.00;4502527;31;20091;-69
2022/04/06 08:00:46;;;;;;;9.95;4.75;;;;;;;14.44;59.76;99896.16;4515574;31;20163;-68
2022/04/06 08:03:14;;;;;;;6.30;4.47;;;;;;;14.53;58.15;99898.53;4517674;31;20099;-69
2022/04/06 08:05:44;;;;;;;8.30;5.32;;;;;;;14.37;58.57;99900.81;4515428;31;20214;-69
2022/04/06 08:08:26;;;;;;;14.32;4.97;;;;;;;14.28;60.15;99901.13;4517727;31;20071;-69
2022/04/06 08:10:53;;;;;;;7.62;5.03;;;;;;;14.43;59.48;99894.44;4517710;31;20227;-69
2022/04/06 08:13:23;;;;;;;7.75;5.03;;;;;;;14.43;58.69;99895.28;4518502;31;20091;-70
2022/04/06 08:15:51;;;;;;;9.55;4.97;;;;;;;14.67;59.10;99896.22;4514125;31;20160;-69
2022/04/06 08:18:21;;;;;;;15.48;5.18;;;;;;;14.72;59.19;99886.31;4511399;31;20166;-68
2022/04/06 08:20:49;;;;;;;6.90;4.80;;;;;;;14.92;59.25;99882.94;4505559;31;20114;-70
2022/04/06 08:23:20;;;;;;;8.25;5.32;;;;;;;15.01;57.86;99887.00;4505475;31;20107;-69
2022/04/06 08:25:49;;;;;;;14.52;5.10;;;;;;;14.55;57.84;99886.91;4504436;31;20120;-69
2022/04/06 08:28:17;;;;;;;7.03;4.97;;;;;;;14.35;60.04;99889.41;4502593;31;20139;-69
2022/04/06 08:30:47;;;;;;;8.68;4.85;;;;;;;14.32;59.93;99889.50;4502332;31;20114;-69
2022/04/06 08:33:15;;;;;;;12.15;5.82;;;;;;;14.54;59.58;99893.16;4502164;31;20100;-70
2022/04/06 08:35:43;;;;;;;7.87;5.12;;;;;;;14.60;58.03;99900.03;4502083;31;20172;-68
2022/04/06 08:38:15;;;;;;;11.43;5.53;;;;;;;14.50;58.10;99896.84;4517622;31;20113;-68
2022/04/06 08:40:43;;;;;;;7.53;5.35;;;;;;;14.69;57.40;99894.37;4518305;31;20095;-68
2022/04/06 08:43:11;;;;;;;9.32;5.43;;;;;;;14.83;57.00;99892.06;4517124;31;20104;-68
2022/04/06 08:45:39;;;;;;;24.98;6.93;;;;;;;15.12;56.96;99886.59;4518125;31;20122;-68
2022/04/06 08:48:08;;;;;;;27.15;6.00;;;;;;;15.54;57.66;99892.88;4517798;31;20109;-68
2022/04/06 08:50:37;;;;;;;10.20;5.65;;;;;;;15.87;57.70;99889.81;4510676;31;20667;-68
2022/04/06 08:53:07;;;;;;;6.28;4.80;;;;;;;16.10;54.73;99896.81;4506830;31;21059;-69
2022/04/06 08:55:35;;;;;;;11.55;5.95;;;;;;;16.31;55.11;99889.72;4506895;31;20151;-69
2022/04/06 08:58:03;;;;;;;8.00;5.50;;;;;;;16.10;53.34;99894.16;4507032;31;20079;-68
2022/04/06 09:00:31;;;;;;;18.83;6.00;;;;;;;16.14;55.15;99892.22;4507371;31;20099;-69
2022/04/06 09:02:58;;;;;;;11.15;5.68;;;;;;;16.48;53.82;99887.19;4517903;31;20746;-69
2022/04/06 09:05:28;;;;;;;7.35;5.28;;;;;;;16.81;51.44;99888.44;4517648;31;20099;-69
2022/04/06 09:07:57;;;;;;;8.85;5.35;;;;;;;16.90;50.32;99877.38;4509163;31;20439;-69
2022/04/06 09:10:35;;;;;;;7.95;4.45;;;;;;;16.70;50.11;99879.09;4505207;31;20087;-69
2022/04/06 09:13:09;;;;;;;6.57;5.03;;;;;;;16.83;50.16;99870.63;4501577;31;20734;-71
2022/04/06 09:15:37;;;;;;;7.78;5.18;;;;;;;16.97;49.81;99873.50;4501507;31;20806;-71
2022/04/06 09:18:05;;;;;;;10.45;5.22;;;;;;;16.85;49.70;99866.06;4511302;31;20087;-71
2022/04/06 09:20:35;;;;;;;7.28;5.18;;;;;;;17.19;49.87;99870.69;4500749;31;20480;-71
2022/04/06 09:23:07;;;;;;;11.00;6.18;;;;;;;17.35;49.45;99869.03;4503637;31;20095;-71
2022/04/06 09:25:36;;;;;;;6.70;5.62;;;;;;;17.86;50.14;99870.09;4501131;31;20091;-72
2022/04/06 09:28:16;;;;;;;9.25;6.30;;;;;;;17.33;49.33;99876.22;4501475;31;20155;-72
2022/04/06 09:30:45;;;;;;;12.57;5.30;;;;;;;17.40;48.95;99871.47;4500591;31;20530;-71
2022/04/06 09:33:15;;;;;;;9.32;5.65;;;;;;;18.07;47.38;99867.28;4508065;31;20162;-72
2022/04/06 09:35:43;;;;;;;11.85;6.45;;;;;;;17.85;47.96;99865.72;4512339;31;20111;-71
2022/04/06 09:38:22;;;;;;;10.35;6.00;;;;;;;17.39;48.73;99859.97;4503942;31;20122;-71
2022/04/06 09:41:00;;;;;;;9.48;6.40;;;;;;;17.80;48.53;99856.22;4500892;31;20748;-71
2022/04/06 09:43:33;;;;;;;10.25;5.35;;;;;;;18.10;50.42;99848.47;4504266;31;20741;-71
2022/04/06 09:49:13;;;;;;;11.93;5.47;;;;;;;18.67;44.74;99841.00;4508231;31;20087;-70
2022/04/06 09:51:46;;;;;;;9.98;5.53;;;;;;;18.49;47.33;99847.34;4503888;31;20115;-71
2022/04/06 09:54:13;;;;;;;7.72;5.75;;;;;;;18.05;46.13;99838.03;4510941;31;20144;-70
2022/04/06 09:56:42;;;;;;;10.50;5.68;;;;;;;17.97;47.61;99834.91;4514009;31;20096;-71
2022/04/06 09:59:12;;;;;;;9.40;5.72;;;;;;;18.26;47.14;99822.72;4507274;31;20106;-71
2022/04/06 10:01:44;;;;;;;10.65;6.30;;;;;;;18.35;45.02;99824.06;4503250;31;20117;-70
2022/04/06 10:04:18;;;;;;;12.18;5.60;;;;;;;18.05;46.14;99819.38;4509102;31;20106;-71
2022/04/06 10:06:45;;;;;;;12.10;5.90;;;;;;;18.72;46.53;99816.78;4519108;31;20126;-71
2022/04/06 10:09:15;;;;;;;11.50;5.82;;;;;;;18.98;44.06;99823.38;4511652;31;20442;-71
2022/04/06 10:11:43;;;;;;;8.85;5.10;;;;;;;19.24;44.44;99816.56;4503030;31;20123;-71
2022/04/06 10:14:10;;;;;;;12.73;5.18;;;;;;;19.47;42.59;99813.44;4502819;31;20100;-71
2022/04/06 10:16:39;;;;;;;15.93;5.55;;;;;;;19.91;41.04;99811.81;4503332;31;20119;-71
2022/04/06 10:19:14;;;;;;;6.90;5.50;;;;;;;19.90;40.97;99808.28;4509772;31;20155;-70
2022/04/06 10:21:56;;;;;;;9.13;5.25;;;;;;;19.92;40.75;99803.69;4518788;31;20117;-71
2022/04/06 10:24:32;;;;;;;10.88;6.90;;;;;;;19.87;40.91;99808.44;4519068;31;20139;-70
2022/04/06 10:27:21;;;;;;;10.40;6.50;;;;;;;20.03;40.08;99795.87;4519266;31;20088;-70
2022/04/06 10:30:07;;;;;;;12.15;6.60;;;;;;;19.84;40.35;99797.94;4518786;31;20477;-70
2022/04/06 10:32:36;;;;;;;17.48;7.10;;;;;;;20.60;39.32;99784.41;4519176;31;20101;-71
2022/04/06 10:35:20;;;;;;;10.45;7.18;;;;;;;20.15;39.78;99793.44;4505006;31;20556;-71
2022/04/06 10:37:48;;;;;;;20.55;7.82;;;;;;;19.95;41.05;99781.25;4502628;31;20092;-71
2022/04/06 10:40:16;;;;;;;11.57;7.40;;;;;;;20.03;42.05;99779.81;4502533;31;20147;-70
2022/04/06 10:42:45;;;;;;;13.25;7.45;;;;;;;20.21;43.30;99775.19;4506207;31;20104;-70
2022/04/06 10:45:24;;;;;;;10.65;7.87;;;;;;;20.40;41.42;99768.69;4509329;31;20175;-71
2022/04/06 10:48:12;;;;;;;16.27;8.80;;;;;;;20.50;40.32;99770.72;4502988;31;20092;-71
2022/04/06 10:50:40;;;;;;;12.82;8.80;;;;;;;21.17;39.86;99773.59;4503004;31;20112;-70
2022/04/06 10:53:20;;;;;;;12.40;8.10;;;;;;;21.68;37.29;99772.91;4502951;31;20752;-70
2022/04/06 10:55:57;;;;;;;10.65;6.65;;;;;;;21.93;37.17;99770.28;4502899;31;20080;-70
2022/04/06 10:58:26;;;;;;;12.88;7.82;;;;;;;22.52;37.61;99756.38;4505715;31;20879;-69
2022/04/06 11:01:13;;;;;;;12.55;8.48;;;;;;;22.61;35.28;99754.84;4511202;31;20079;-70
2022/04/06 11:04:15;;;;;;;14.87;9.07;;;;;;;22.35;34.93;99752.19;4518846;31;20091;-70
2022/04/06 11:06:48;;;;;;;18.55;9.13;;;;;;;21.87;36.79;99748.38;4517945;31;20098;-70
2022/04/06 11:12:24;;;;;;;16.52;9.75;;;;;;;22.57;36.32;99742.59;4517876;31;20124;-70
2022/04/06 11:14:57;;;;;;;13.73;8.63;;;;;;;22.90;34.87;99731.25;4518429;31;20158;-70
2022/04/06 11:17:32;;;;;;;12.10;8.63;;;;;;;24.14;33.44;99732.63;4518312;31;20083;-70
2022/04/06 11:20:03;;;;;;;;;;;;;;;24.56;31.88;99727.53;4518892;31;20125;-69
2022/04/06 11:22:31;;;;;;;11.12;8.00;;;;;;;25.68;30.32;99723.66;4519063;31;20392;-69
2022/04/06 11:24:59;;;;;;;11.23;8.95;;;;;;;26.76;28.28;99716.03;4518603;31;20092;-71
2022/04/06 11:27:33;;;;;;;14.65;9.40;;;;;;;27.29;27.69;99713.03;4516081;31;20923;-70
2022/04/06 11:30:09;;;;;;;17.08;10.05;;;;;;;27.65;28.55;99706.03;4518843;31;20171;-70
2022/04/06 11:32:37;;;;;;;8.75;7.85;;;;;;;28.07;26.83;99702.97;4518283;31;20700;-70
2022/04/06 11:35:06;;;;;;;15.55;7.80;;;;;;;27.73;26.51;99696.31;4509611;31;20099;-70
2022/04/06 11:37:48;;;;;;;11.52;8.68;;;;;;;27.63;25.73;99699.91;4510565;31;20088;-70
2022/04/06 11:40:27;;;;;;;15.05;9.73;;;;;;;27.03;26.90;99693.75;4509558;31;20079;-69
2022/04/06 11:42:56;;;;;;;12.95;8.35;;;;;;;27.44;26.57;99680.97;4502359;31;20126;-70
2022/04/06 11:45:28;;;;;;;17.48;8.20;;;;;;;27.29;26.97;99679.72;4502406;31;20138;-69